createdAt,value
2022-12-14T00:02:20.589Z,42.11
2022-12-14T00:04:46.940Z,41.85
2022-12-14T00:07:13.259Z,42.12
2022-12-14T00:09:39.639Z,42.09
2022-12-14T00:12:06.310Z,42.10
2022-12-14T00:14:32.636Z,41.92
2022-12-14T00:16:58.949Z,42.05
2022-12-14T00:19:25.270Z,42.00
2022-12-14T00:21:51.602Z,41.92
2022-12-14T00:24:17.953Z,41.99
2022-12-14T00:26:44.273Z,42.08
2022-12-14T00:29:17.615Z,41.77
2022-12-14T00:31:43.954Z,41.51
2022-12-14T00:34:15.239Z,41.39
2022-12-14T00:36:44.257Z,41.07
2022-12-14T00:39:13.151Z,41.24
2022-12-14T00:41:39.480Z,41.27
2022-12-14T00:44:05.805Z,41.31
2022-12-14T00:46:32.172Z,41.36
2022-12-14T00:48:58.666Z,41.54
2022-12-14T00:51:24.979Z,41.32
2022-12-14T00:53:51.296Z,41.14
2022-12-14T00:56:17.614Z,41.30
2022-12-14T00:58:44.423Z,41.13
2022-12-14T01:01:14.866Z,40.97
2022-12-14T01:03:41.428Z,40.83
2022-12-14T01:06:12.968Z,40.82
2022-12-14T01:08:39.278Z,40.89
2022-12-14T01:11:06.403Z,40.78
2022-12-14T01:13:32.768Z,40.85
2022-12-14T01:16:04.427Z,40.78
2022-12-14T01:18:32.993Z,40.88
2022-12-14T01:21:07.622Z,40.45
2022-12-14T01:23:33.968Z,40.55
2022-12-14T01:26:00.310Z,40.64
2022-12-14T01:28:26.638Z,40.51
2022-12-14T01:30:53.117Z,40.36
2022-12-14T01:33:19.438Z,40.19
2022-12-14T01:35:45.782Z,40.30
2022-12-14T01:38:12.092Z,40.21
2022-12-14T01:40:38.941Z,40.10
2022-12-14T01:43:10.377Z,40.42
2022-12-14T01:45:36.705Z,40.08
2022-12-14T01:48:03.022Z,40.08
2022-12-14T01:50:30.340Z,39.97
2022-12-14T01:52:58.141Z,39.81
2022-12-14T01:55:34.170Z,39.76
2022-12-14T01:58:05.623Z,39.74
2022-12-14T02:00:31.961Z,39.82
2022-12-14T02:02:59.881Z,39.72
2022-12-14T02:05:26.323Z,39.78
2022-12-14T02:07:52.919Z,39.81
2022-12-14T02:10:19.243Z,39.86
2022-12-14T02:12:47.086Z,39.72
2022-12-14T02:15:13.458Z,39.61
2022-12-14T02:17:41.278Z,39.77
2022-12-14T02:20:07.781Z,39.47
2022-12-14T02:22:42.194Z,39.37
2022-12-14T02:25:15.632Z,39.43
2022-12-14T02:27:47.850Z,39.38
2022-12-14T02:30:18.372Z,39.39
2022-12-14T02:33:03.316Z,39.15
2022-12-14T02:35:35.233Z,39.45
2022-12-14T02:38:06.458Z,39.40
2022-12-14T02:40:48.627Z,39.28
2022-12-14T02:43:18.646Z,39.31
2022-12-14T02:45:53.947Z,39.17
2022-12-14T02:48:24.644Z,39.06
2022-12-14T02:51:02.919Z,38.87
2022-12-14T02:53:31.343Z,38.97
2022-12-14T02:56:01.766Z,39.03
2022-12-14T02:58:38.382Z,38.90
2022-12-14T03:01:04.832Z,39.11
2022-12-14T03:03:31.416Z,39.06
2022-12-14T03:06:26.991Z,39.13
2022-12-14T03:08:54.241Z,39.07
2022-12-14T03:11:21.242Z,39.08
2022-12-14T03:13:53.414Z,38.90
2022-12-14T03:16:20.863Z,38.88
2022-12-14T03:18:50.035Z,38.84
2022-12-14T03:21:16.917Z,38.71
2022-12-14T03:23:43.310Z,38.97
2022-12-14T03:26:13.952Z,38.87
2022-12-14T03:28:43.156Z,38.82
2022-12-14T03:31:10.930Z,38.84
2022-12-14T03:33:37.272Z,38.84
2022-12-14T03:36:04.953Z,38.80
2022-12-14T03:38:33.198Z,38.74
2022-12-14T03:41:05.561Z,38.66
2022-12-14T03:43:35.550Z,38.63
2022-12-14T03:46:04.283Z,38.51
2022-12-14T03:48:41.004Z,38.57
2022-12-14T03:51:14.285Z,38.47
2022-12-14T03:53:56.767Z,38.69
2022-12-14T03:56:33.915Z,38.53
2022-12-14T03:59:07.719Z,38.64
2022-12-14T04:02:00.332Z,38.68
2022-12-14T04:04:42.009Z,38.58
2022-12-14T04:07:10.431Z,38.73
2022-12-14T04:09:39.690Z,38.70
2022-12-14T04:12:24.681Z,38.49
2022-12-14T04:15:14.197Z,38.82
2022-12-14T04:17:59.240Z,38.63
2022-12-14T04:20:26.951Z,38.54
2022-12-14T04:22:55.331Z,38.53
2022-12-14T04:25:45.211Z,38.47
2022-12-14T04:28:55.950Z,38.47
2022-12-14T04:31:23.160Z,38.11
2022-12-14T04:33:55.759Z,37.97
2022-12-14T04:36:27.518Z,37.81
2022-12-14T04:38:55.558Z,37.85
2022-12-14T04:41:23.143Z,37.95
2022-12-14T04:43:49.475Z,37.99
2022-12-14T04:46:16.801Z,38.19
2022-12-14T04:48:45.107Z,38.10
2022-12-14T04:51:13.417Z,38.06
2022-12-14T04:53:39.728Z,38.08
2022-12-14T04:56:08.249Z,38.31
2022-12-14T04:58:34.581Z,38.42
2022-12-14T05:01:10.153Z,38.41
2022-12-14T05:03:37.816Z,38.46
2022-12-14T05:06:07.533Z,38.49
2022-12-14T05:08:40.837Z,38.65
2022-12-14T05:11:31.744Z,38.41
2022-12-14T05:13:55.694Z,38.24
2022-12-14T05:16:22.454Z,37.96
2022-12-14T05:18:48.858Z,37.94
2022-12-14T05:21:33.971Z,37.61
2022-12-14T05:24:00.736Z,37.56
2022-12-14T05:26:32.839Z,37.49
2022-12-14T05:28:59.294Z,37.43
2022-12-14T05:31:25.630Z,37.28
2022-12-14T05:33:54.601Z,37.31
2022-12-14T05:36:20.945Z,37.46
2022-12-14T05:38:47.271Z,37.53
2022-12-14T05:41:13.757Z,37.67
2022-12-14T05:43:45.709Z,37.75
2022-12-14T05:46:15.444Z,37.82
2022-12-14T05:48:46.044Z,37.80
2022-12-14T05:51:18.097Z,37.99
2022-12-14T05:53:44.645Z,37.89
2022-12-14T05:56:11.017Z,38.07
2022-12-14T05:58:37.345Z,37.85
2022-12-14T06:01:04.348Z,37.85
2022-12-14T06:03:31.016Z,37.62
2022-12-14T06:06:01.900Z,37.72
2022-12-14T06:08:30.549Z,37.20
2022-12-14T06:11:01.937Z,37.14
2022-12-14T06:13:28.610Z,37.19
2022-12-14T06:15:55.304Z,36.90
2022-12-14T06:18:24.120Z,36.89
2022-12-14T06:20:50.436Z,36.95
2022-12-14T06:23:16.744Z,36.91
2022-12-14T06:25:43.091Z,37.05
2022-12-14T06:28:09.403Z,37.04
2022-12-14T06:30:35.860Z,37.17
2022-12-14T06:33:02.266Z,29.30
2022-12-14T06:35:28.585Z,38.08
2022-12-14T06:37:54.906Z,37.79
2022-12-14T06:40:21.224Z,36.10
2022-12-14T06:42:47.990Z,35.67
2022-12-14T06:45:14.977Z,35.71
2022-12-14T06:47:41.313Z,36.66
2022-12-14T06:50:07.718Z,36.27
2022-12-14T06:52:34.610Z,36.41
2022-12-14T06:55:00.945Z,36.38
2022-12-14T06:57:27.300Z,36.39
2022-12-14T06:59:53.631Z,36.20
2022-12-14T07:02:20.200Z,36.12
2022-12-14T07:04:46.725Z,35.91
2022-12-14T07:07:13.059Z,35.97
2022-12-14T07:09:42.016Z,36.84
2022-12-14T07:12:11.336Z,38.24
2022-12-14T07:14:37.685Z,37.60
2022-12-14T07:17:04.001Z,37.19
2022-12-14T07:19:30.314Z,36.75
2022-12-14T07:21:56.672Z,36.35
2022-12-14T07:24:23.048Z,36.23
2022-12-14T07:26:49.429Z,34.40
2022-12-14T07:29:16.760Z,33.46
2022-12-14T07:31:43.100Z,33.11
2022-12-14T07:34:10.817Z,32.54
2022-12-14T07:36:37.129Z,31.96
2022-12-14T07:39:03.463Z,31.14
2022-12-14T07:41:30.999Z,30.92
2022-12-14T07:43:57.834Z,30.63
2022-12-14T07:46:25.004Z,30.47
2022-12-14T07:48:51.957Z,30.08
2022-12-14T07:51:19.085Z,29.38
2022-12-14T07:53:45.424Z,29.13
2022-12-14T07:56:15.405Z,29.06
2022-12-14T07:58:44.494Z,28.91
2022-12-14T08:01:14.537Z,28.32
2022-12-14T08:03:41.805Z,28.70
2022-12-14T08:06:08.239Z,28.54
2022-12-14T08:08:34.547Z,28.42
2022-12-14T08:11:00.995Z,27.49
2022-12-14T08:13:32.766Z,28.09
2022-12-14T08:16:03.255Z,28.09
2022-12-14T08:18:29.818Z,29.25
2022-12-14T08:20:56.145Z,29.91
2022-12-14T08:23:22.465Z,30.11
2022-12-14T08:25:57.641Z,30.44
2022-12-14T08:28:27.239Z,31.11
2022-12-14T08:30:53.606Z,31.40
2022-12-14T08:33:22.540Z,31.74
2022-12-14T08:35:51.792Z,32.12
2022-12-14T08:38:18.127Z,32.60
2022-12-14T08:40:44.444Z,32.29
2022-12-14T08:43:10.777Z,32.81
2022-12-14T08:45:37.097Z,32.88
2022-12-14T08:48:03.435Z,33.21
2022-12-14T08:50:29.750Z,33.69
2022-12-14T08:52:59.052Z,34.10
2022-12-14T08:55:29.098Z,34.32
2022-12-14T08:57:56.689Z,34.05
2022-12-14T09:00:23.068Z,34.58
2022-12-14T09:02:50.227Z,34.67
2022-12-14T09:05:16.970Z,34.58
2022-12-14T09:07:43.328Z,34.85
2022-12-14T09:10:09.701Z,35.37
2022-12-14T09:12:36.204Z,35.13
2022-12-14T09:15:08.649Z,35.71
2022-12-14T09:17:43.764Z,35.82
2022-12-14T09:20:14.115Z,36.00
2022-12-14T09:22:40.452Z,36.24
2022-12-14T09:25:06.825Z,36.35
2022-12-14T09:27:33.663Z,35.91
2022-12-14T09:29:59.992Z,35.28
2022-12-14T09:32:28.123Z,35.20
2022-12-14T09:34:54.432Z,35.14
2022-12-14T09:37:20.759Z,35.01
2022-12-14T09:39:47.174Z,35.10
2022-12-14T09:42:33.673Z,35.10
2022-12-14T09:45:04.525Z,34.82
2022-12-14T09:47:32.496Z,35.08
2022-12-14T09:50:00.699Z,34.97
2022-12-14T09:52:46.370Z,35.01
2022-12-14T09:55:17.398Z,35.06
2022-12-14T09:57:44.534Z,35.33
2022-12-14T10:00:18.235Z,35.67
2022-12-14T10:03:10.032Z,35.63
2022-12-14T10:05:59.535Z,35.30
2022-12-14T10:08:26.795Z,35.37
2022-12-14T10:10:58.248Z,35.24
2022-12-14T10:13:24.614Z,35.56
2022-12-14T10:16:09.754Z,35.39
2022-12-14T10:18:58.819Z,35.62
2022-12-14T10:21:26.532Z,35.51
2022-12-14T10:23:53.279Z,35.77
2022-12-14T10:26:21.279Z,35.69
2022-12-14T10:28:48.467Z,35.44
2022-12-14T10:31:16.945Z,35.65
2022-12-14T10:33:44.065Z,35.68
2022-12-14T10:36:30.060Z,35.62
2022-12-14T10:38:58.277Z,35.69
2022-12-14T10:41:30.639Z,35.73
2022-12-14T10:44:03.333Z,31.21
2022-12-14T10:46:42.536Z,33.19
2022-12-14T10:49:11.814Z,32.33
2022-12-14T10:51:46.846Z,32.97
2022-12-14T10:54:34.898Z,33.07
2022-12-14T10:57:01.324Z,33.24
2022-12-14T10:59:32.215Z,32.92
2022-12-14T11:02:11.069Z,33.72
2022-12-14T11:04:39.040Z,33.95
2022-12-14T11:07:11.843Z,33.86
2022-12-14T11:09:38.295Z,34.22
2022-12-14T11:12:08.803Z,34.43
2022-12-14T11:14:38.269Z,34.74
2022-12-14T11:17:05.427Z,34.95
2022-12-14T11:19:31.815Z,35.47
2022-12-14T11:22:04.833Z,34.22
2022-12-14T11:24:31.367Z,33.69
2022-12-14T11:27:01.353Z,32.81
2022-12-14T11:29:34.465Z,35.18
2022-12-14T11:32:00.873Z,34.67
2022-12-14T11:34:31.499Z,34.45
2022-12-14T11:37:10.453Z,35.04
2022-12-14T11:39:36.796Z,35.33
2022-12-14T11:42:04.266Z,35.65
2022-12-14T11:44:36.865Z,37.30
2022-12-14T11:47:08.367Z,36.56
2022-12-14T11:49:37.642Z,37.94
2022-12-14T11:52:14.070Z,37.68
2022-12-14T11:54:41.087Z,37.27
2022-12-14T11:57:08.425Z,37.36
2022-12-14T11:59:53.891Z,37.14
2022-12-14T12:02:24.933Z,37.60
2022-12-14T12:04:55.705Z,37.79
2022-12-14T12:07:24.105Z,37.75
2022-12-14T12:09:50.467Z,38.36
2022-12-14T12:12:17.420Z,37.73
2022-12-14T12:14:43.753Z,38.50
2022-12-14T12:17:19.069Z,38.12
2022-12-14T12:19:45.389Z,38.94
2022-12-14T12:22:11.748Z,38.49
2022-12-14T12:25:08.266Z,37.70
2022-12-14T12:27:30.055Z,36.72
2022-12-14T12:30:07.036Z,37.18
2022-12-14T12:32:34.618Z,37.14
2022-12-14T12:35:11.286Z,38.15
2022-12-14T12:37:41.194Z,38.20
2022-12-14T12:40:16.207Z,38.58
2022-12-14T12:42:44.940Z,38.86
2022-12-14T12:45:16.507Z,38.51
2022-12-14T12:47:48.334Z,38.81
2022-12-14T12:50:19.138Z,38.59
2022-12-14T12:52:48.709Z,39.53
2022-12-14T12:55:18.412Z,39.54
2022-12-14T12:57:45.845Z,40.91
2022-12-14T13:00:22.124Z,40.45
2022-12-14T13:02:49.981Z,41.80
2022-12-14T13:08:11.769Z,41.90
2022-12-14T13:10:50.508Z,41.76
2022-12-14T13:13:30.072Z,38.18
2022-12-14T13:16:03.267Z,39.42
2022-12-14T13:19:12.870Z,39.66
2022-12-14T13:21:49.786Z,41.43
2022-12-14T13:24:17.562Z,42.31
2022-12-14T13:26:59.329Z,43.17
2022-12-14T13:29:55.042Z,43.29
2022-12-14T13:32:29.867Z,42.79
2022-12-14T13:35:03.162Z,43.72
2022-12-14T13:37:48.428Z,44.09
2022-12-14T13:40:14.675Z,43.73
2022-12-14T13:42:44.454Z,44.02
2022-12-14T13:45:20.385Z,40.98
2022-12-14T13:47:48.604Z,41.25
2022-12-14T13:50:38.408Z,41.83
2022-12-14T13:53:08.184Z,38.69
2022-12-14T13:55:39.942Z,40.99
2022-12-14T13:58:25.221Z,40.67
2022-12-14T14:00:52.787Z,40.87
2022-12-14T14:03:34.830Z,41.36
2022-12-14T14:06:08.094Z,41.28
2022-12-14T14:08:41.479Z,41.07
2022-12-14T14:11:39.703Z,41.29
2022-12-14T14:14:23.031Z,41.85
2022-12-14T14:16:56.334Z,38.93
2022-12-14T14:19:23.647Z,38.42
2022-12-14T14:25:12.770Z,38.73
2022-12-14T14:27:39.644Z,39.10
2022-12-14T14:30:28.835Z,39.12
2022-12-14T14:33:07.547Z,39.57
2022-12-14T14:35:40.185Z,39.81
2022-12-14T14:38:26.265Z,38.91
2022-12-14T14:43:49.549Z,34.73
2022-12-14T14:46:22.203Z,34.78
2022-12-14T14:48:53.121Z,36.05
2022-12-14T14:51:22.866Z,36.47
2022-12-14T14:53:50.368Z,36.71
2022-12-14T14:56:32.665Z,37.63
2022-12-14T14:59:37.102Z,38.13
2022-12-14T15:02:04.015Z,37.65
2022-12-14T15:04:49.452Z,38.04
2022-12-14T15:07:23.400Z,38.60
2022-12-14T15:09:54.595Z,38.76
2022-12-14T15:12:32.927Z,38.96
2022-12-14T15:15:00.699Z,38.93
2022-12-14T15:17:27.540Z,38.87
2022-12-14T15:19:54.434Z,39.06
2022-12-14T15:22:24.098Z,39.05
2022-12-14T15:24:51.113Z,39.04
2022-12-14T15:27:24.857Z,38.83
2022-12-14T15:29:51.351Z,38.86
2022-12-14T15:32:18.353Z,38.93
2022-12-14T15:35:03.412Z,38.91
2022-12-14T15:37:37.524Z,38.93
2022-12-14T15:40:05.494Z,39.45
2022-12-14T15:42:34.844Z,39.40
2022-12-14T15:45:02.428Z,39.42
2022-12-14T15:47:31.264Z,39.89
2022-12-14T15:50:15.896Z,40.08
2022-12-14T15:52:42.257Z,39.73
2022-12-14T15:55:19.912Z,39.79
2022-12-14T15:57:46.230Z,39.54
2022-12-14T16:00:13.482Z,39.65
2022-12-14T16:02:43.877Z,39.74
2022-12-14T16:05:14.053Z,39.56
2022-12-14T16:07:40.734Z,39.87
2022-12-14T16:10:08.804Z,39.93
2022-12-14T16:12:44.460Z,39.90
2022-12-14T16:15:17.648Z,39.67
2022-12-14T16:17:44.713Z,39.76
2022-12-14T16:20:19.257Z,39.67
2022-12-14T16:23:01.795Z,39.51
2022-12-14T16:25:28.673Z,39.60
2022-12-14T16:27:54.994Z,39.69
2022-12-14T16:30:24.302Z,39.87
2022-12-14T16:33:03.539Z,40.03
2022-12-14T16:35:29.904Z,39.82
2022-12-14T16:38:04.085Z,39.83
2022-12-14T16:40:32.604Z,39.46
2022-12-14T16:42:58.958Z,40.27
2022-12-14T16:45:43.610Z,39.97
2022-12-14T16:48:17.013Z,39.71
2022-12-14T16:51:02.928Z,40.01
2022-12-14T16:53:30.293Z,39.44
2022-12-14T16:56:01.009Z,40.42
2022-12-14T16:58:27.383Z,40.10
2022-12-14T17:00:57.856Z,40.05
2022-12-14T17:03:24.359Z,39.77
2022-12-14T17:05:54.467Z,39.81
2022-12-14T17:08:20.864Z,39.97
2022-12-14T17:10:47.193Z,39.75
2022-12-14T17:13:13.548Z,39.32
2022-12-14T17:15:52.275Z,39.29
2022-12-14T17:18:20.221Z,39.68
2022-12-14T17:20:46.735Z,41.05
2022-12-14T17:23:14.814Z,40.77
2022-12-14T17:25:46.175Z,41.45
2022-12-14T17:28:17.098Z,40.90
2022-12-14T17:30:43.488Z,41.08
2022-12-14T17:33:18.913Z,40.63
2022-12-14T17:35:45.258Z,40.55
2022-12-14T17:38:14.782Z,31.39
2022-12-14T17:40:41.110Z,30.54
2022-12-14T17:43:08.597Z,28.63
2022-12-14T17:45:34.920Z,29.82
2022-12-14T17:48:01.232Z,31.06
2022-12-14T17:50:27.536Z,32.32
2022-12-14T17:52:53.874Z,33.03
2022-12-14T17:55:21.688Z,33.20
2022-12-14T17:57:48.002Z,33.58
2022-12-14T18:00:40.410Z,34.58
2022-12-14T18:03:06.923Z,35.41
2022-12-14T18:05:43.604Z,35.58
2022-12-14T18:08:14.554Z,36.04
2022-12-14T18:10:41.556Z,36.14
2022-12-14T18:13:07.878Z,36.52
2022-12-14T18:15:35.396Z,36.72
2022-12-14T18:18:01.751Z,36.88
2022-12-14T18:20:28.080Z,37.15
2022-12-14T18:22:54.380Z,37.37
2022-12-14T18:25:28.586Z,37.61
2022-12-14T18:27:54.902Z,37.66
2022-12-14T18:30:24.072Z,37.70
2022-12-14T18:32:56.608Z,37.84
2022-12-14T18:35:24.108Z,38.19
2022-12-14T18:37:50.582Z,38.10
2022-12-14T18:40:18.062Z,38.15
2022-12-14T18:42:44.734Z,38.13
2022-12-14T18:45:18.571Z,38.33
2022-12-14T18:47:45.033Z,38.33
2022-12-14T18:50:11.861Z,38.40
2022-12-14T18:52:38.227Z,38.41
2022-12-14T18:55:05.707Z,38.31
2022-12-14T18:57:32.080Z,38.46
2022-12-14T18:59:58.403Z,38.48
2022-12-14T19:02:24.830Z,38.55
2022-12-14T19:04:51.316Z,38.57
2022-12-14T19:07:17.624Z,38.62
2022-12-14T19:09:43.939Z,38.64
2022-12-14T19:12:10.975Z,38.65
2022-12-14T19:14:37.350Z,38.62
2022-12-14T19:17:03.696Z,38.94
2022-12-14T19:19:36.727Z,38.75
2022-12-14T19:22:07.941Z,39.25
2022-12-14T19:24:34.769Z,39.38
2022-12-14T19:27:01.120Z,39.01
2022-12-14T19:29:27.453Z,38.88
2022-12-14T19:31:54.573Z,39.04
2022-12-14T19:34:21.936Z,39.62
2022-12-14T19:36:51.240Z,39.40
2022-12-14T19:39:17.596Z,39.00
2022-12-14T19:41:43.911Z,38.99
2022-12-14T19:44:10.234Z,39.30
2022-12-14T19:46:36.981Z,39.55
2022-12-14T19:49:03.411Z,39.16
2022-12-14T19:51:29.732Z,38.89
2022-12-14T19:53:56.287Z,38.62
2022-12-14T19:56:23.086Z,38.82
2022-12-14T19:58:49.410Z,38.57
2022-12-14T20:01:16.275Z,38.58
2022-12-14T20:03:42.797Z,38.75
2022-12-14T20:06:09.234Z,38.63
2022-12-14T20:08:35.546Z,38.87
2022-12-14T20:11:17.394Z,39.05
2022-12-14T20:13:43.746Z,38.73
2022-12-14T20:16:14.054Z,38.57
2022-12-14T20:18:43.177Z,38.52
2022-12-14T20:21:09.647Z,38.16
2022-12-14T20:23:38.835Z,37.85
2022-12-14T20:26:06.198Z,38.78
2022-12-14T20:28:32.994Z,39.56
2022-12-14T20:31:00.538Z,35.02
2022-12-14T20:33:30.619Z,29.75
2022-12-14T20:35:57.909Z,29.78
2022-12-14T20:38:24.410Z,31.39
2022-12-14T20:40:50.778Z,31.97
2022-12-14T20:43:19.807Z,33.45
2022-12-14T20:45:46.537Z,34.03
2022-12-14T20:48:15.867Z,34.63
2022-12-14T20:50:42.453Z,34.95
2022-12-14T20:53:08.760Z,35.58
2022-12-14T20:55:35.140Z,35.85
2022-12-14T20:58:01.465Z,36.50
2022-12-14T21:00:27.814Z,36.53
2022-12-14T21:02:54.216Z,36.71
2022-12-14T21:05:20.636Z,36.97
2022-12-14T21:07:46.954Z,37.13
2022-12-14T21:10:13.297Z,37.27
2022-12-14T21:12:39.624Z,37.46
2022-12-14T21:15:06.059Z,37.58
2022-12-14T21:17:33.595Z,37.58
2022-12-14T21:19:59.944Z,37.68
2022-12-14T21:22:26.507Z,37.66
2022-12-14T21:25:08.276Z,37.82
2022-12-14T21:27:35.246Z,37.86
2022-12-14T21:30:01.627Z,38.05
2022-12-14T21:32:28.130Z,38.33
2022-12-14T21:34:54.471Z,38.31
2022-12-14T21:37:20.879Z,38.37
2022-12-14T21:39:52.361Z,38.38
2022-12-14T21:42:21.866Z,38.61
2022-12-14T21:44:48.799Z,38.47
2022-12-14T21:47:16.084Z,38.56
2022-12-14T21:49:42.621Z,38.58
2022-12-14T21:52:09.306Z,38.73
2022-12-14T21:54:35.634Z,38.59
2022-12-14T21:57:20.432Z,38.51
2022-12-14T21:59:46.751Z,38.51
2022-12-14T22:02:13.157Z,38.56
2022-12-14T22:04:40.196Z,38.62
2022-12-14T22:07:06.553Z,38.66
2022-12-14T22:09:32.858Z,38.67
2022-12-14T22:11:59.200Z,38.60
2022-12-14T22:14:25.519Z,38.80
2022-12-14T22:16:51.908Z,38.88
2022-12-14T22:19:22.047Z,38.91
2022-12-14T22:21:48.385Z,38.89
2022-12-14T22:24:15.527Z,38.96
2022-12-14T22:26:42.334Z,38.81
2022-12-14T22:29:08.684Z,38.80
2022-12-14T22:31:35.291Z,38.88
2022-12-14T22:34:01.688Z,38.99
2022-12-14T22:36:40.529Z,38.90
2022-12-14T22:39:18.804Z,39.18
2022-12-14T22:41:45.352Z,38.05
2022-12-14T22:44:12.455Z,37.59
2022-12-14T22:46:38.897Z,37.00
2022-12-14T22:49:05.220Z,37.13
2022-12-14T22:51:31.565Z,37.35
2022-12-14T22:53:57.882Z,37.32
2022-12-14T22:56:28.662Z,37.80
2022-12-14T22:59:12.494Z,37.93
2022-12-14T23:01:38.925Z,37.99
2022-12-14T23:04:05.556Z,38.10
2022-12-14T23:06:31.964Z,38.12
2022-12-14T23:09:16.893Z,38.34
2022-12-14T23:12:02.126Z,38.33
2022-12-14T23:14:47.112Z,38.46
2022-12-14T23:17:31.952Z,38.64
2022-12-14T23:20:17.124Z,38.62
2022-12-14T23:23:05.250Z,38.64
2022-12-14T23:25:51.694Z,38.72
2022-12-14T23:28:36.678Z,38.76
2022-12-14T23:31:21.710Z,38.76
2022-12-14T23:34:06.862Z,38.78
2022-12-14T23:36:51.597Z,38.93
2022-12-14T23:39:36.635Z,38.96
2022-12-14T23:42:21.413Z,38.92
2022-12-14T23:45:06.523Z,38.82
2022-12-14T23:47:51.428Z,38.82
2022-12-14T23:50:36.387Z,38.75
2022-12-14T23:53:27.691Z,38.94
2022-12-14T23:56:13.028Z,39.01
2022-12-14T23:58:58.084Z,39.07
